Time;durP1;ratioP1;P1;durP2;ratioP2;P2;SDS_P1;SDS_P2;PMS_P1;PMS_P2;Temp;Humidity;BMP_temperature;BMP_pressure;BME280_temperature;BME280_humidity;BME280_pressure;Samples;Min_cycle;Max_cycle;Signal;HPM_P1;HPM_P2
2022/02/10 00:04:56;;;;;;;3.50;2.10;;;22.10;46.30;;;;;;4994319;28;20598;-67
2022/02/10 00:15:39;;;;;;;3.30;1.80;;;22.00;46.30;;;;;;4997782;28;20069;-67
2022/02/10 00:17:46;;;;;;;2.90;1.58;;;22.00;46.30;;;;;;4998670;28;20053;-64
2022/02/10 00:36:10;;;;;;;3.10;1.80;;;21.90;46.30;;;;;;5000092;28;20109;-68
2022/02/10 00:38:41;;;;;;;2.78;1.83;;;21.90;46.30;;;;;;4999729;28;20026;-66
2022/02/10 00:41:06;;;;;;;2.80;1.85;;;21.90;46.30;;;;;;4999244;28;20034;-67
2022/02/10 00:43:32;;;;;;;3.17;1.95;;;21.90;46.30;;;;;;4999495;28;20415;-67
2022/02/10 00:45:57;;;;;;;3.65;2.28;;;21.90;46.30;;;;;;4997073;28;20049;-67
2022/02/10 00:48:23;;;;;;;2.80;1.73;;;21.80;46.30;;;;;;4998189;28;20541;-67
2022/02/10 00:50:50;;;;;;;2.75;1.77;;;21.80;46.30;;;;;;5013320;28;20064;-68
2022/02/10 00:53:25;;;;;;;3.72;1.90;;;21.80;46.40;;;;;;4998015;28;20033;-67
2022/02/10 00:55:50;;;;;;;3.08;1.67;;;21.80;46.30;;;;;;4999778;28;20366;-67
2022/02/10 00:58:24;;;;;;;3.58;2.10;;;21.80;46.40;;;;;;5012897;28;20033;-67
2022/02/10 01:24:29;;;;;;;2.45;1.67;;;21.70;46.30;;;;;;4996782;28;20372;-67
2022/02/10 01:30:37;;;;;;;2.53;1.50;;;21.70;46.40;;;;;;4995970;28;20068;-67
2022/02/10 01:33:03;;;;;;;2.75;1.70;;;21.70;46.90;;;;;;4997068;28;20117;-65
2022/02/10 01:35:29;;;;;;;3.17;1.85;;;21.60;46.40;;;;;;4998399;28;20037;-67
2022/02/10 01:37:55;;;;;;;2.92;1.63;;;21.60;46.40;;;;;;4998449;28;20406;-67
2022/02/10 01:40:28;;;;;;;3.30;1.80;;;21.60;46.40;;;;;;4996915;28;20029;-64
2022/02/10 02:04:22;;;;;;;2.65;1.48;;;21.50;46.40;;;;;;4996691;28;20251;-65
2022/02/10 02:06:51;;;;;;;2.47;1.48;;;21.50;46.40;;;;;;4998732;28;20033;-66
2022/02/10 02:09:18;;;;;;;2.58;1.60;;;21.50;46.40;;;;;;4997436;28;20014;-67
2022/02/10 02:11:46;;;;;;;2.80;1.80;;;21.50;46.40;;;;;;4998393;28;20163;-67
2022/02/10 02:14:16;;;;;;;2.58;1.60;;;21.50;46.50;;;;;;4994491;28;20026;-67
2022/02/10 02:16:45;;;;;;;2.95;1.77;;;21.50;46.50;;;;;;4994538;28;20068;-66
2022/02/10 02:19:12;;;;;;;2.80;1.75;;;21.40;46.40;;;;;;4996414;28;20069;-67
2022/02/10 02:21:40;;;;;;;2.65;1.50;;;21.40;46.50;;;;;;4997439;28;20430;-67
2022/02/10 02:24:06;;;;;;;2.80;1.60;;;21.50;46.50;;;;;;4996123;28;20084;-67
2022/02/10 02:26:33;;;;;;;2.70;1.67;;;21.50;46.50;;;;;;4997608;28;20021;-67
2022/02/10 02:29:02;;;;;;;2.50;1.60;;;21.40;46.40;;;;;;4993941;28;20093;-63
2022/02/10 02:31:38;;;;;;;2.97;1.50;;;21.50;46.50;;;;;;4996563;28;20038;-64
2022/02/10 02:39:43;;;;;;;2.80;1.50;;;21.40;46.50;;;;;;4997573;28;20064;-69
2022/02/10 03:06:41;;;;;;;2.55;1.60;;;21.30;46.50;;;;;;4996947;28;20041;-67
2022/02/10 03:09:21;;;;;;;2.80;1.70;;;21.30;46.50;;;;;;4996508;28;20509;-67
2022/02/10 03:11:46;;;;;;;2.33;1.50;;;21.30;46.50;;;;;;4994365;28;20118;-65
2022/02/10 03:14:17;;;;;;;2.45;1.77;;;21.30;46.50;;;;;;4995525;28;20077;-67
2022/02/10 03:17:06;;;;;;;2.75;1.50;;;21.30;46.50;;;;;;5009956;28;20080;-64
2022/02/10 04:26:27;;;;;;;2.13;1.35;;;21.10;46.70;;;;;;5000264;28;20034;-63
2022/02/10 05:17:25;;;;;;;1.88;1.20;;;21.00;46.80;;;;;;4999971;28;20080;-67
2022/02/10 05:35:54;;;;;;;1.85;1.20;;;20.90;46.90;;;;;;4998214;28;20034;-67
2022/02/10 05:54:17;;;;;;;1.90;1.20;;;20.90;47.50;;;;;;4998950;28;20496;-67
2022/02/10 06:46:58;;;;;;;3.72;1.58;;;21.80;47.10;;;;;;4994133;28;20044;-65
2022/02/10 06:51:03;;;;;;;2.17;1.25;;;22.30;46.50;;;;;;4995196;28;20034;-66
2022/02/10 07:11:52;;;;;;;2.30;1.20;;;23.40;45.80;;;;;;4997777;28;20026;-65
2022/02/10 07:47:00;;;;;;;1.67;1.00;;;23.10;47.70;;;;;;4996971;28;20037;-65
2022/02/10 07:59:32;;;;;;;1.25;0.80;;;23.20;47.90;;;;;;4993624;28;20027;-67
2022/02/10 08:05:08;;;;;;;0.93;0.77;;;23.20;48.60;;;;;;4995770;28;20143;-66
2022/02/10 08:26:07;;;;;;;1.23;0.90;;;23.20;48.10;;;;;;4998642;28;20114;-67
2022/02/10 09:20:03;;;;;;;1.83;1.00;;;23.50;46.30;;;;;;4996943;28;20058;-65
2022/02/10 09:51:36;;;;;;;1.73;1.00;;;23.60;46.10;;;;;;4998272;28;20060;-65
2022/02/10 09:55:35;;;;;;;1.33;0.90;;;23.70;46.20;;;;;;4998508;28;20473;-66
2022/02/10 10:01:03;;;;;;;1.02;0.90;;;23.70;46.20;;;;;;4994874;28;20355;-66
2022/02/10 10:03:33;;;;;;;;;;;23.70;46.20;;;;;;4999974;28;20124;-64
2022/02/10 10:06:00;;;;;;;1.35;1.00;;;23.70;46.00;;;;;;4998069;28;19914;-65
2022/02/10 10:14:25;;;;;;;1.50;0.90;;;23.80;46.00;;;;;;4997862;28;20046;-62
2022/02/10 10:56:30;;;;;;;2.28;1.50;;;24.00;44.50;;;;;;5005246;28;20351;-67
2022/02/10 11:38:06;;;;;;;1.67;1.10;;;23.80;45.00;;;;;;4995419;28;20932;-67
2022/02/10 11:40:40;;;;;;;1.40;1.00;;;23.80;45.10;;;;;;4995696;28;20018;-66
2022/02/10 11:43:33;;;;;;;1.90;1.10;;;23.80;45.10;;;;;;5010594;28;20148;-66
2022/02/10 11:46:27;;;;;;;1.88;1.20;;;23.80;45.10;;;;;;4992792;28;20054;-65
2022/02/10 12:43:26;;;;;;;1.95;1.00;;;23.80;45.90;;;;;;5003304;28;20065;-66
2022/02/10 14:13:18;;;;;;;2.05;1.20;;;24.10;46.10;;;;;;4996269;28;20096;-65
2022/02/10 14:28:27;;;;;;;2.25;1.20;;;24.10;46.10;;;;;;4995446;28;20029;-69
2022/02/10 14:30:54;;;;;;;2.00;1.10;;;24.10;46.10;;;;;;4992368;28;20035;-65
2022/02/10 14:33:27;;;;;;;2.03;1.20;;;24.10;46.20;;;;;;4995351;28;20117;-67
2022/02/10 14:38:49;;;;;;;1.90;1.13;;;24.10;46.30;;;;;;4996728;28;20046;-67
2022/02/10 15:57:03;;;;;;;2.20;1.17;;;23.80;46.10;;;;;;4994193;28;20034;-68
2022/02/10 16:18:23;;;;;;;3.25;1.30;;;23.70;46.20;;;;;;4993320;28;20101;-67
2022/02/10 16:20:59;;;;;;;2.40;1.30;;;23.70;46.20;;;;;;5008411;28;20026;-66
2022/02/10 16:23:26;;;;;;;2.20;1.20;;;23.60;46.70;;;;;;5006842;28;20133;-66
2022/02/10 16:26:09;;;;;;;2.05;1.25;;;23.60;46.20;;;;;;4993235;28;20447;-68
2022/02/10 16:28:35;;;;;;;1.92;1.13;;;23.60;46.20;;;;;;4997039;28;20030;-69
2022/02/10 16:31:02;;;;;;;2.55;1.20;;;23.60;46.20;;;;;;5003588;28;21432;-67
2022/02/10 16:33:31;;;;;;;2.28;1.30;;;23.60;46.20;;;;;;4991025;28;20105;-70
2022/02/10 16:35:59;;;;;;;3.40;1.08;;;23.50;46.20;;;;;;5005481;28;20418;-68
2022/02/10 16:38:25;;;;;;;2.22;1.10;;;23.50;46.20;;;;;;4989272;28;20041;-66
2022/02/10 16:40:51;;;;;;;1.88;1.10;;;23.50;46.20;;;;;;5006314;28;20030;-67
2022/02/10 16:43:17;;;;;;;2.63;1.10;;;23.50;46.10;;;;;;4990420;28;20073;-67
2022/02/10 16:45:42;;;;;;;2.13;1.25;;;23.50;46.10;;;;;;4988967;28;20038;-68
2022/02/10 16:48:10;;;;;;;2.88;1.40;;;23.50;46.10;;;;;;4992581;28;20021;-66
2022/02/10 16:50:36;;;;;;;1.38;1.10;;;23.40;46.00;;;;;;5011030;28;20409;-69
2022/02/10 16:53:07;;;;;;;3.33;1.30;;;23.40;46.00;;;;;;5009509;28;20029;-68
2022/02/10 17:14:05;;;;;;;2.60;1.30;;;23.40;46.00;;;;;;4994515;28;20018;-68
2022/02/10 17:19:31;;;;;;;3.15;1.30;;;23.40;46.20;;;;;;5000240;28;20061;-67
2022/02/10 17:32:31;;;;;;;1.60;1.10;;;23.40;46.20;;;;;;4999827;28;20514;-66
2022/02/10 17:46:08;;;;;;;2.13;1.33;;;23.30;46.20;;;;;;4993697;28;20037;-68
2022/02/10 17:51:40;;;;;;;3.97;1.40;;;23.40;46.20;;;;;;5002022;28;20033;-67
2022/02/10 17:54:06;;;;;;;2.83;1.40;;;23.40;46.50;;;;;;4997791;28;20172;-66
2022/02/10 17:56:32;;;;;;;2.60;1.20;;;23.40;46.40;;;;;;4996561;28;20033;-69
2022/02/10 17:58:58;;;;;;;3.15;1.30;;;23.40;46.30;;;;;;4995360;28;20187;-69
2022/02/10 18:01:24;;;;;;;2.20;1.25;;;23.50;46.40;;;;;;4995860;28;20057;-70
2022/02/10 18:03:50;;;;;;;3.33;1.30;;;23.50;46.30;;;;;;4998381;28;20027;-71
2022/02/10 18:14:23;;;;;;;3.97;1.40;;;23.60;46.50;;;;;;4996713;28;20041;-72
2022/02/10 18:17:00;;;;;;;3.10;1.40;;;23.60;46.40;;;;;;4998233;28;20030;-68
2022/02/10 18:19:30;;;;;;;3.72;1.40;;;23.60;46.40;;;;;;4999145;28;20753;-69
2022/02/10 18:30:23;;;;;;;3.00;1.30;;;23.60;46.50;;;;;;4999796;28;20093;-69
2022/02/10 19:10:14;;;;;;;4.22;1.90;;;23.80;46.10;;;;;;4993594;28;20029;-69
2022/02/10 19:13:02;;;;;;;3.33;1.90;;;23.80;46.10;;;;;;4993822;28;20044;-69
2022/02/10 19:15:34;;;;;;;3.45;1.58;;;23.80;46.00;;;;;;4991688;28;20119;-70
2022/02/10 19:18:01;;;;;;;4.80;1.80;;;23.80;46.00;;;;;;4993691;28;20025;-70
2022/02/10 19:20:27;;;;;;;3.95;1.70;;;23.80;46.10;;;;;;4993139;28;20371;-69
2022/02/10 19:22:53;;;;;;;3.67;1.50;;;23.80;46.00;;;;;;4991439;28;22156;-69
2022/02/10 19:25:20;;;;;;;4.55;1.80;;;23.80;46.10;;;;;;4989803;28;20036;-68
2022/02/10 19:27:48;;;;;;;4.55;1.70;;;23.80;45.90;;;;;;4993172;28;20065;-70
2022/02/10 19:30:16;;;;;;;4.68;1.80;;;23.80;45.90;;;;;;4994079;28;21316;-72
2022/02/10 19:32:49;;;;;;;5.13;2.00;;;23.80;45.80;;;;;;4996534;28;20048;-69
2022/02/10 19:35:16;;;;;;;4.32;1.80;;;23.90;45.80;;;;;;5008565;28;20571;-69
2022/02/10 19:37:45;;;;;;;4.82;1.90;;;23.90;45.80;;;;;;4996098;28;20052;-69
2022/02/10 19:40:11;;;;;;;3.90;1.83;;;23.90;45.80;;;;;;4983696;28;20386;-72
2022/02/10 19:42:40;;;;;;;4.28;1.88;;;23.90;45.80;;;;;;4994084;28;20127;-69
2022/02/10 19:45:07;;;;;;;3.85;1.83;;;23.90;45.80;;;;;;4990248;28;20026;-70
2022/02/10 19:47:35;;;;;;;3.10;1.50;;;23.90;45.80;;;;;;4996557;28;20030;-71
2022/02/10 19:50:09;;;;;;;2.90;1.60;;;23.90;45.70;;;;;;4994808;28;20982;-70
2022/02/10 19:52:38;;;;;;;3.22;1.50;;;23.90;45.70;;;;;;4994150;28;20049;-71
2022/02/10 19:55:05;;;;;;;3.75;1.48;;;23.90;45.80;;;;;;4994057;28;20021;-69
2022/02/10 19:57:35;;;;;;;5.97;1.70;;;23.90;45.70;;;;;;5010500;28;20061;-72
2022/02/10 20:00:04;;;;;;;4.15;1.60;;;23.90;45.60;;;;;;5001699;28;20501;-68
2022/02/10 20:02:30;;;;;;;3.78;1.50;;;23.90;46.20;;;;;;4993538;28;20126;-71
2022/02/10 20:04:56;;;;;;;3.88;1.50;;;23.90;45.50;;;;;;5002050;28;20037;-69
2022/02/10 20:07:21;;;;;;;2.20;1.30;;;23.90;45.60;;;;;;4998032;28;20022;-70
2022/02/10 20:09:47;;;;;;;3.08;1.30;;;23.90;45.60;;;;;;4992884;28;20819;-70
2022/02/10 20:12:13;;;;;;;3.75;1.50;;;23.90;45.60;;;;;;4995988;28;20041;-72
2022/02/10 20:14:38;;;;;;;4.88;1.40;;;23.90;45.70;;;;;;4995436;28;20818;-69
2022/02/10 20:17:04;;;;;;;2.88;1.60;;;23.90;46.20;;;;;;4995014;28;20060;-71
2022/02/10 20:19:30;;;;;;;3.38;1.45;;;23.90;45.50;;;;;;4992489;28;20549;-71
2022/02/10 20:21:55;;;;;;;4.05;1.38;;;23.90;45.40;;;;;;4994006;28;20096;-71
2022/02/10 20:24:22;;;;;;;3.03;1.50;;;23.90;45.40;;;;;;4996910;28;20125;-70
2022/02/10 20:26:48;;;;;;;2.90;1.45;;;23.90;45.40;;;;;;5000929;28;20444;-71
2022/02/10 20:29:13;;;;;;;4.85;1.50;;;23.90;45.40;;;;;;5005455;28;20044;-72
2022/02/10 20:31:40;;;;;;;2.13;1.50;;;23.90;45.30;;;;;;5011661;28;20116;-70
2022/02/10 20:34:10;;;;;;;2.83;1.67;;;24.00;45.40;;;;;;5000192;28;20929;-70
2022/02/10 20:36:37;;;;;;;6.30;1.88;;;24.00;45.40;;;;;;4996324;28;20140;-72
2022/02/10 20:39:07;;;;;;;4.00;1.45;;;24.00;45.30;;;;;;5002991;28;20025;-70
2022/02/10 20:41:35;;;;;;;3.05;1.50;;;24.00;45.30;;;;;;5003289;28;20200;-68
2022/02/10 20:44:02;;;;;;;2.70;1.42;;;24.00;45.30;;;;;;4996026;28;20682;-72
2022/02/10 20:46:30;;;;;;;3.55;1.60;;;24.00;45.20;;;;;;4998195;28;20018;-71
2022/02/10 20:48:57;;;;;;;4.45;1.50;;;24.00;45.20;;;;;;5005529;28;20040;-68
2022/02/10 20:51:23;;;;;;;3.50;1.75;;;24.00;45.20;;;;;;4997325;28;20033;-70
2022/02/10 20:53:51;;;;;;;3.58;1.50;;;24.00;45.30;;;;;;4995932;28;20037;-68
2022/02/10 20:56:19;;;;;;;2.60;1.42;;;24.00;45.30;;;;;;4994513;28;20070;-72
2022/02/10 20:58:55;;;;;;;4.05;1.65;;;23.90;45.30;;;;;;4994847;28;20049;-71
2022/02/10 21:01:21;;;;;;;4.07;1.60;;;23.90;45.40;;;;;;4992834;28;20045;-71
2022/02/10 21:03:47;;;;;;;2.78;1.58;;;23.90;45.40;;;;;;4994160;28;20113;-68
2022/02/10 21:08:53;;;;;;;3.75;1.73;;;23.90;45.50;;;;;;4995256;28;20093;-71
2022/02/10 21:11:22;;;;;;;3.30;1.40;;;23.90;45.60;;;;;;4996937;28;20057;-71
2022/02/10 21:13:48;;;;;;;3.17;1.40;;;23.90;45.60;;;;;;4996452;28;20030;-72
2022/02/10 21:16:14;;;;;;;3.30;1.40;;;23.80;45.60;;;;;;4993324;28;20139;-72
2022/02/10 21:18:41;;;;;;;3.05;1.40;;;23.80;45.60;;;;;;4991882;28;20092;-72
2022/02/10 21:21:12;;;;;;;3.28;1.50;;;23.80;45.60;;;;;;4995767;28;20156;-69
2022/02/10 21:23:47;;;;;;;2.58;1.30;;;23.80;45.70;;;;;;5009060;28;20402;-70
2022/02/10 21:26:15;;;;;;;2.83;1.33;;;23.80;45.70;;;;;;4993647;28;20017;-72
2022/02/10 21:28:42;;;;;;;1.77;1.17;;;23.70;45.70;;;;;;4992985;28;20057;-69
2022/02/10 21:31:09;;;;;;;4.00;1.50;;;23.70;45.80;;;;;;4994201;28;20033;-69
2022/02/10 21:38:46;;;;;;;2.78;1.58;;;23.70;45.80;;;;;;4994561;28;20072;-70
2022/02/10 22:21:07;;;;;;;1.83;1.15;;;23.40;46.20;;;;;;4991976;28;20058;-70
2022/02/10 22:23:36;;;;;;;2.63;1.08;;;23.40;46.20;;;;;;4997248;28;20034;-71
2022/02/10 22:26:05;;;;;;;;;;;23.30;46.10;;;;;;4995371;28;20033;-70
2022/02/10 22:28:55;;;;;;;2.08;1.20;;;23.30;46.20;;;;;;4992120;28;20355;-69
2022/02/10 22:36:35;;;;;;;2.20;1.17;;;23.30;46.30;;;;;;4995987;28;20548;-69
2022/02/10 22:39:03;;;;;;;3.17;1.20;;;23.20;46.20;;;;;;4993733;28;20042;-70
2022/02/10 22:41:30;;;;;;;2.10;1.15;;;23.20;46.30;;;;;;4994989;28;20034;-71
2022/02/10 22:43:56;;;;;;;5.75;1.30;;;23.20;46.30;;;;;;4995217;28;20030;-70
2022/02/10 22:46:22;;;;;;;2.28;1.30;;;23.20;46.30;;;;;;4997173;28;20121;-70
2022/02/10 22:48:50;;;;;;;2.28;1.27;;;23.20;46.40;;;;;;5012201;28;20060;-68
2022/02/10 22:51:18;;;;;;;2.58;1.30;;;23.20;46.40;;;;;;4997558;28;20037;-69
2022/02/10 22:53:44;;;;;;;2.13;1.20;;;23.10;46.30;;;;;;4995790;28;20034;-69
2022/02/10 22:56:12;;;;;;;2.38;1.20;;;23.10;46.30;;;;;;4997366;28;20038;-67
2022/02/10 22:58:39;;;;;;;1.92;1.10;;;23.10;46.40;;;;;;4994688;28;20264;-69
2022/02/10 23:01:09;;;;;;;2.25;1.15;;;23.10;46.30;;;;;;4995737;28;20510;-70
2022/02/10 23:03:36;;;;;;;1.85;0.98;;;23.10;46.40;;;;;;4996745;28;20034;-69
2022/02/10 23:06:07;;;;;;;1.70;1.13;;;23.10;46.30;;;;;;4998760;28;20493;-68
2022/02/10 23:08:33;;;;;;;1.45;1.00;;;23.00;46.30;;;;;;4998170;28;20495;-69
2022/02/10 23:11:00;;;;;;;1.27;0.82;;;23.00;46.30;;;;;;4997073;28;20590;-70
2022/02/10 23:13:29;;;;;;;1.50;1.00;;;23.00;46.30;;;;;;4996262;28;20026;-70
2022/02/10 23:16:14;;;;;;;1.02;0.90;;;23.00;46.40;;;;;;4995091;28;20048;-71
2022/02/10 23:18:41;;;;;;;1.52;1.05;;;23.00;46.30;;;;;;4994763;28;20496;-68
2022/02/10 23:21:10;;;;;;;1.77;0.98;;;22.90;46.30;;;;;;4997591;28;20452;-68
2022/02/10 23:23:37;;;;;;;2.00;0.90;;;22.90;46.20;;;;;;4998047;28;20474;-69
2022/02/10 23:26:05;;;;;;;1.80;1.00;;;22.90;46.30;;;;;;5012727;28;20026;-69
2022/02/10 23:28:38;;;;;;;2.08;1.27;;;22.90;46.30;;;;;;4994898;28;20033;-68
2022/02/10 23:31:06;;;;;;;1.63;1.02;;;22.90;46.30;;;;;;4994193;28;20699;-69
2022/02/10 23:33:35;;;;;;;1.27;0.98;;;22.90;46.30;;;;;;4995842;28;20173;-67
2022/02/10 23:38:38;;;;;;;1.05;0.80;;;22.90;46.30;;;;;;4997215;28;20045;-68
2022/02/10 23:43:46;;;;;;;2.08;1.00;;;22.80;46.30;;;;;;4993916;28;20026;-71
2022/02/10 23:46:12;;;;;;;1.50;0.95;;;22.80;46.30;;;;;;4995860;28;20026;-69
2022/02/10 23:48:38;;;;;;;1.77;0.90;;;22.80;46.30;;;;;;4996337;28;20402;-68
2022/02/10 23:51:04;;;;;;;1.52;0.90;;;22.70;46.30;;;;;;4997158;28;20073;-68
2022/02/10 23:53:31;;;;;;;0.98;0.82;;;22.80;46.40;;;;;;4995605;28;20034;-70
2022/02/10 23:55:59;;;;;;;2.20;1.02;;;22.70;46.30;;;;;;5012152;28;20030;-70
